Terminal Aerodrome Forecast
Issued by NWS

Home | Current Version | Previous Version | Text Only | Print | Product List | Glossary On
Versions: 1 2 3 4 5 6 7 8 9 10 11 12 13 14 15 16 17 18 19 20 21 22 23 24 25
000
FTUS43 KDLH 271131
TAFHYR
TAF
KHYR 271131Z 2712/2812 02004KT P6SM SKC
     FM271600 08006KT P6SM VCSH OVC090
     FM272300 VRB05KT P6SM -RA VCTS OVC045CB
     FM280500 05002KT 1 1/2SM BR VCTS OVC001CB
     FM280600 00000KT 1/2SM -RA FG OVC001=

USA.gov is the U.S. government's official web portal to all federal, state and local government web resources and services.